sensor_id;sensor_type;location;lat;lon;timestamp;P1;durP1;ratioP1;P2;durP2;ratioP2
15408;SDS011;7803;48.130;13.788;2023-05-16T00:00:46;3.92;;;2.47;;
15408;SDS011;7803;48.130;13.788;2023-05-16T00:03:48;2.40;;;2.10;;
15408;SDS011;7803;48.130;13.788;2023-05-16T00:06:51;2.55;;;1.70;;
15408;SDS011;7803;48.130;13.788;2023-05-16T00:09:54;2.38;;;1.95;;
15408;SDS011;7803;48.130;13.788;2023-05-16T00:12:56;2.72;;;2.10;;
15408;SDS011;7803;48.130;13.788;2023-05-16T00:16:00;2.00;;;1.80;;
15408;SDS011;7803;48.130;13.788;2023-05-16T00:19:04;2.97;;;2.20;;
15408;SDS011;7803;48.130;13.788;2023-05-16T00:22:07;2.35;;;2.00;;
15408;SDS011;7803;48.130;13.788;2023-05-16T00:25:10;2.28;;;1.80;;
15408;SDS011;7803;48.130;13.788;2023-05-16T00:28:12;2.22;;;2.03;;
15408;SDS011;7803;48.130;13.788;2023-05-16T00:31:14;2.30;;;2.00;;
15408;SDS011;7803;48.130;13.788;2023-05-16T00:34:16;2.78;;;2.03;;
15408;SDS011;7803;48.130;13.788;2023-05-16T00:37:21;2.22;;;2.00;;
15408;SDS011;7803;48.130;13.788;2023-05-16T00:40:23;2.30;;;1.90;;
15408;SDS011;7803;48.130;13.788;2023-05-16T00:43:25;2.20;;;2.00;;
15408;SDS011;7803;48.130;13.788;2023-05-16T00:46:27;1.92;;;1.80;;
15408;SDS011;7803;48.130;13.788;2023-05-16T00:49:29;2.33;;;2.13;;
15408;SDS011;7803;48.130;13.788;2023-05-16T00:52:33;2.28;;;2.08;;
15408;SDS011;7803;48.130;13.788;2023-05-16T00:55:35;3.08;;;2.17;;
15408;SDS011;7803;48.130;13.788;2023-05-16T00:58:38;2.88;;;2.22;;
15408;SDS011;7803;48.130;13.788;2023-05-16T01:01:40;2.25;;;1.70;;
15408;SDS011;7803;48.130;13.788;2023-05-16T01:04:45;1.98;;;1.80;;
15408;SDS011;7803;48.130;13.788;2023-05-16T01:07:50;2.08;;;1.88;;
15408;SDS011;7803;48.130;13.788;2023-05-16T01:10:55;1.60;;;1.50;;
15408;SDS011;7803;48.130;13.788;2023-05-16T01:14:05;1.95;;;1.80;;
15408;SDS011;7803;48.130;13.788;2023-05-16T01:17:15;2.10;;;1.80;;
15408;SDS011;7803;48.130;13.788;2023-05-16T01:20:34;2.63;;;2.13;;
15408;SDS011;7803;48.130;13.788;2023-05-16T01:23:50;2.00;;;1.80;;
15408;SDS011;7803;48.130;13.788;2023-05-16T01:27:02;2.10;;;1.90;;
15408;SDS011;7803;48.130;13.788;2023-05-16T01:30:12;2.35;;;1.75;;
15408;SDS011;7803;48.130;13.788;2023-05-16T01:33:15;2.67;;;2.00;;
15408;SDS011;7803;48.130;13.788;2023-05-16T01:36:20;2.35;;;2.15;;
15408;SDS011;7803;48.130;13.788;2023-05-16T01:39:26;1.98;;;1.77;;
15408;SDS011;7803;48.130;13.788;2023-05-16T01:42:36;2.10;;;1.90;;
15408;SDS011;7803;48.130;13.788;2023-05-16T01:45:46;2.10;;;1.90;;
15408;SDS011;7803;48.130;13.788;2023-05-16T01:48:52;2.10;;;1.90;;
15408;SDS011;7803;48.130;13.788;2023-05-16T01:51:59;3.10;;;2.08;;
15408;SDS011;7803;48.130;13.788;2023-05-16T01:55:05;2.97;;;2.20;;
15408;SDS011;7803;48.130;13.788;2023-05-16T01:58:17;2.88;;;2.28;;
15408;SDS011;7803;48.130;13.788;2023-05-16T02:01:22;2.00;;;1.90;;
15408;SDS011;7803;48.130;13.788;2023-05-16T02:04:24;3.38;;;1.77;;
15408;SDS011;7803;48.130;13.788;2023-05-16T02:07:26;2.42;;;2.08;;
15408;SDS011;7803;48.130;13.788;2023-05-16T02:10:28;3.83;;;2.50;;
15408;SDS011;7803;48.130;13.788;2023-05-16T02:13:32;2.50;;;2.13;;
15408;SDS011;7803;48.130;13.788;2023-05-16T02:16:34;2.28;;;2.08;;
15408;SDS011;7803;48.130;13.788;2023-05-16T02:19:36;2.30;;;2.08;;
15408;SDS011;7803;48.130;13.788;2023-05-16T02:22:38;2.63;;;2.25;;
15408;SDS011;7803;48.130;13.788;2023-05-16T02:25:41;2.45;;;2.25;;
15408;SDS011;7803;48.130;13.788;2023-05-16T02:28:45;2.58;;;2.30;;
15408;SDS011;7803;48.130;13.788;2023-05-16T02:31:48;2.80;;;2.50;;
15408;SDS011;7803;48.130;13.788;2023-05-16T02:34:50;2.47;;;2.28;;
15408;SDS011;7803;48.130;13.788;2023-05-16T02:37:52;3.03;;;2.70;;
15408;SDS011;7803;48.130;13.788;2023-05-16T02:40:54;2.70;;;2.50;;
15408;SDS011;7803;48.130;13.788;2023-05-16T02:43:58;2.83;;;2.60;;
15408;SDS011;7803;48.130;13.788;2023-05-16T02:47:00;2.75;;;2.55;;
15408;SDS011;7803;48.130;13.788;2023-05-16T02:50:02;3.22;;;2.92;;
15408;SDS011;7803;48.130;13.788;2023-05-16T02:53:05;3.83;;;2.92;;
15408;SDS011;7803;48.130;13.788;2023-05-16T02:56:07;2.95;;;2.75;;
15408;SDS011;7803;48.130;13.788;2023-05-16T02:59:11;3.22;;;2.92;;
15408;SDS011;7803;48.130;13.788;2023-05-16T03:02:13;3.30;;;2.97;;
15408;SDS011;7803;48.130;13.788;2023-05-16T03:05:15;3.47;;;3.17;;
15408;SDS011;7803;48.130;13.788;2023-05-16T03:08:17;4.28;;;3.05;;
15408;SDS011;7803;48.130;13.788;2023-05-16T03:11:19;3.50;;;3.20;;
15408;SDS011;7803;48.130;13.788;2023-05-16T03:14:23;3.67;;;3.38;;
15408;SDS011;7803;48.130;13.788;2023-05-16T03:17:25;3.90;;;3.50;;
15408;SDS011;7803;48.130;13.788;2023-05-16T03:20:27;4.25;;;3.78;;
15408;SDS011;7803;48.130;13.788;2023-05-16T03:23:29;3.80;;;3.40;;
15408;SDS011;7803;48.130;13.788;2023-05-16T03:26:31;3.67;;;3.38;;
15408;SDS011;7803;48.130;13.788;2023-05-16T03:29:35;4.15;;;3.70;;
15408;SDS011;7803;48.130;13.788;2023-05-16T03:32:37;4.10;;;3.70;;
15408;SDS011;7803;48.130;13.788;2023-05-16T03:35:39;4.20;;;3.80;;
15408;SDS011;7803;48.130;13.788;2023-05-16T03:38:41;4.68;;;3.88;;
15408;SDS011;7803;48.130;13.788;2023-05-16T03:41:43;5.38;;;4.35;;
15408;SDS011;7803;48.130;13.788;2023-05-16T03:44:46;5.10;;;4.38;;
15408;SDS011;7803;48.130;13.788;2023-05-16T03:47:48;4.30;;;3.90;;
15408;SDS011;7803;48.130;13.788;2023-05-16T03:50:50;4.30;;;3.90;;
15408;SDS011;7803;48.130;13.788;2023-05-16T03:53:52;4.57;;;4.18;;
15408;SDS011;7803;48.130;13.788;2023-05-16T03:56:54;4.20;;;3.80;;
15408;SDS011;7803;48.130;13.788;2023-05-16T03:59:57;4.50;;;4.10;;
15408;SDS011;7803;48.130;13.788;2023-05-16T04:03:00;4.05;;;3.65;;
15408;SDS011;7803;48.130;13.788;2023-05-16T04:06:02;4.15;;;3.75;;
15408;SDS011;7803;48.130;13.788;2023-05-16T04:09:04;4.10;;;3.70;;
15408;SDS011;7803;48.130;13.788;2023-05-16T04:12:06;4.78;;;4.05;;
15408;SDS011;7803;48.130;13.788;2023-05-16T04:15:10;4.72;;;4.07;;
15408;SDS011;7803;48.130;13.788;2023-05-16T04:18:12;4.20;;;3.80;;
15408;SDS011;7803;48.130;13.788;2023-05-16T04:21:14;4.25;;;3.88;;
15408;SDS011;7803;48.130;13.788;2023-05-16T04:24:16;4.53;;;4.13;;
15408;SDS011;7803;48.130;13.788;2023-05-16T04:27:18;4.53;;;4.13;;
15408;SDS011;7803;48.130;13.788;2023-05-16T04:30:22;4.70;;;4.30;;
15408;SDS011;7803;48.130;13.788;2023-05-16T04:33:24;4.50;;;4.10;;
15408;SDS011;7803;48.130;13.788;2023-05-16T04:36:26;4.55;;;4.15;;
15408;SDS011;7803;48.130;13.788;2023-05-16T04:39:29;4.82;;;4.40;;
15408;SDS011;7803;48.130;13.788;2023-05-16T04:42:31;4.72;;;4.30;;
15408;SDS011;7803;48.130;13.788;2023-05-16T04:45:35;4.63;;;4.20;;
15408;SDS011;7803;48.130;13.788;2023-05-16T04:48:37;4.75;;;4.35;;
15408;SDS011;7803;48.130;13.788;2023-05-16T04:51:39;4.50;;;4.10;;
15408;SDS011;7803;48.130;13.788;2023-05-16T04:54:40;4.55;;;4.15;;
15408;SDS011;7803;48.130;13.788;2023-05-16T04:57:43;4.78;;;4.38;;
15408;SDS011;7803;48.130;13.788;2023-05-16T05:00:47;4.75;;;4.10;;
15408;SDS011;7803;48.130;13.788;2023-05-16T05:03:49;5.07;;;4.50;;
15408;SDS011;7803;48.130;13.788;2023-05-16T05:06:51;5.05;;;4.30;;
15408;SDS011;7803;48.130;13.788;2023-05-16T05:09:53;4.50;;;4.10;;
15408;SDS011;7803;48.130;13.788;2023-05-16T05:12:56;4.50;;;4.10;;
15408;SDS011;7803;48.130;13.788;2023-05-16T05:15:59;4.53;;;4.10;;
15408;SDS011;7803;48.130;13.788;2023-05-16T05:19:03;5.25;;;4.22;;
15408;SDS011;7803;48.130;13.788;2023-05-16T05:22:05;5.65;;;4.18;;
15408;SDS011;7803;48.130;13.788;2023-05-16T05:25:08;4.60;;;4.18;;
15408;SDS011;7803;48.130;13.788;2023-05-16T05:28:10;6.38;;;4.55;;
15408;SDS011;7803;48.130;13.788;2023-05-16T05:31:13;4.63;;;4.20;;
15408;SDS011;7803;48.130;13.788;2023-05-16T05:34:15;5.18;;;4.22;;
15408;SDS011;7803;48.130;13.788;2023-05-16T05:37:17;6.53;;;4.70;;
15408;SDS011;7803;48.130;13.788;2023-05-16T05:40:20;5.97;;;4.25;;
15408;SDS011;7803;48.130;13.788;2023-05-16T05:43:22;5.53;;;4.40;;
15408;SDS011;7803;48.130;13.788;2023-05-16T05:46:25;4.55;;;4.15;;
15408;SDS011;7803;48.130;13.788;2023-05-16T05:49:27;4.65;;;4.18;;
15408;SDS011;7803;48.130;13.788;2023-05-16T05:52:29;5.82;;;4.30;;
15408;SDS011;7803;48.130;13.788;2023-05-16T05:55:31;6.30;;;4.82;;
15408;SDS011;7803;48.130;13.788;2023-05-16T05:58:33;4.97;;;4.30;;
15408;SDS011;7803;48.130;13.788;2023-05-16T06:01:37;4.60;;;4.20;;
15408;SDS011;7803;48.130;13.788;2023-05-16T06:04:40;5.75;;;4.50;;
15408;SDS011;7803;48.130;13.788;2023-05-16T06:07:42;6.05;;;4.60;;
15408;SDS011;7803;48.130;13.788;2023-05-16T06:10:44;4.50;;;4.05;;
15408;SDS011;7803;48.130;13.788;2023-05-16T06:13:46;5.15;;;4.10;;
15408;SDS011;7803;48.130;13.788;2023-05-16T06:16:49;4.40;;;4.00;;
15408;SDS011;7803;48.130;13.788;2023-05-16T06:19:52;4.57;;;4.13;;
15408;SDS011;7803;48.130;13.788;2023-05-16T06:22:54;4.90;;;4.30;;
15408;SDS011;7803;48.130;13.788;2023-05-16T06:25:56;4.70;;;4.13;;
15408;SDS011;7803;48.130;13.788;2023-05-16T06:28:58;5.00;;;4.40;;
15408;SDS011;7803;48.130;13.788;2023-05-16T06:32:02;5.55;;;4.50;;
15408;SDS011;7803;48.130;13.788;2023-05-16T06:35:04;4.65;;;4.25;;
15408;SDS011;7803;48.130;13.788;2023-05-16T06:38:06;4.57;;;4.18;;
15408;SDS011;7803;48.130;13.788;2023-05-16T06:41:08;5.10;;;4.60;;
15408;SDS011;7803;48.130;13.788;2023-05-16T06:44:10;5.20;;;4.20;;
15408;SDS011;7803;48.130;13.788;2023-05-16T06:47:13;4.70;;;4.20;;
15408;SDS011;7803;48.130;13.788;2023-05-16T06:50:16;5.10;;;4.32;;
15408;SDS011;7803;48.130;13.788;2023-05-16T06:53:18;5.30;;;4.13;;
15408;SDS011;7803;48.130;13.788;2023-05-16T06:56:20;4.95;;;4.10;;
15408;SDS011;7803;48.130;13.788;2023-05-16T06:59:22;5.68;;;4.10;;
15408;SDS011;7803;48.130;13.788;2023-05-16T07:02:26;4.65;;;4.15;;
15408;SDS011;7803;48.130;13.788;2023-05-16T07:05:28;6.30;;;4.55;;
15408;SDS011;7803;48.130;13.788;2023-05-16T07:08:30;4.68;;;4.10;;
15408;SDS011;7803;48.130;13.788;2023-05-16T07:11:32;4.88;;;4.10;;
15408;SDS011;7803;48.130;13.788;2023-05-16T07:14:34;4.82;;;3.92;;
15408;SDS011;7803;48.130;13.788;2023-05-16T07:17:37;5.00;;;4.30;;
15408;SDS011;7803;48.130;13.788;2023-05-16T07:20:39;6.60;;;4.32;;
15408;SDS011;7803;48.130;13.788;2023-05-16T07:23:41;5.53;;;4.10;;
15408;SDS011;7803;48.130;13.788;2023-05-16T07:26:43;4.82;;;4.20;;
15408;SDS011;7803;48.130;13.788;2023-05-16T07:29:45;4.85;;;4.10;;
15408;SDS011;7803;48.130;13.788;2023-05-16T07:32:49;4.47;;;4.07;;
15408;SDS011;7803;48.130;13.788;2023-05-16T07:35:51;5.53;;;4.00;;
15408;SDS011;7803;48.130;13.788;2023-05-16T07:38:53;5.13;;;4.30;;
15408;SDS011;7803;48.130;13.788;2023-05-16T07:41:55;4.30;;;3.90;;
15408;SDS011;7803;48.130;13.788;2023-05-16T07:44:57;5.00;;;4.00;;
15408;SDS011;7803;48.130;13.788;2023-05-16T07:48:00;7.60;;;4.57;;
15408;SDS011;7803;48.130;13.788;2023-05-16T07:51:02;5.20;;;4.00;;
15408;SDS011;7803;48.130;13.788;2023-05-16T07:54:04;4.43;;;4.03;;
15408;SDS011;7803;48.130;13.788;2023-05-16T07:57:06;5.28;;;4.00;;
15408;SDS011;7803;48.130;13.788;2023-05-16T08:00:09;4.63;;;3.92;;
15408;SDS011;7803;48.130;13.788;2023-05-16T08:03:13;4.82;;;3.78;;
15408;SDS011;7803;48.130;13.788;2023-05-16T08:06:15;5.88;;;3.95;;
15408;SDS011;7803;48.130;13.788;2023-05-16T08:09:17;5.95;;;4.00;;
15408;SDS011;7803;48.130;13.788;2023-05-16T08:12:19;5.07;;;4.13;;
15408;SDS011;7803;48.130;13.788;2023-05-16T08:15:21;4.55;;;3.85;;
15408;SDS011;7803;48.130;13.788;2023-05-16T08:18:25;4.90;;;4.10;;
15408;SDS011;7803;48.130;13.788;2023-05-16T08:21:27;5.85;;;3.90;;
15408;SDS011;7803;48.130;13.788;2023-05-16T08:24:29;4.40;;;4.00;;
15408;SDS011;7803;48.130;13.788;2023-05-16T08:27:31;5.07;;;3.83;;
15408;SDS011;7803;48.130;13.788;2023-05-16T08:30:33;5.72;;;3.97;;
15408;SDS011;7803;48.130;13.788;2023-05-16T08:33:37;3.97;;;3.58;;
15408;SDS011;7803;48.130;13.788;2023-05-16T08:36:39;5.40;;;3.92;;
15408;SDS011;7803;48.130;13.788;2023-05-16T08:39:41;4.80;;;3.55;;
15408;SDS011;7803;48.130;13.788;2023-05-16T08:42:43;4.30;;;3.90;;
15408;SDS011;7803;48.130;13.788;2023-05-16T08:45:45;5.65;;;3.42;;
15408;SDS011;7803;48.130;13.788;2023-05-16T08:48:48;4.28;;;3.65;;
15408;SDS011;7803;48.130;13.788;2023-05-16T08:51:55;5.28;;;4.00;;
15408;SDS011;7803;48.130;13.788;2023-05-16T08:54:59;5.28;;;3.83;;
15408;SDS011;7803;48.130;13.788;2023-05-16T08:58:06;6.25;;;3.90;;
15408;SDS011;7803;48.130;13.788;2023-05-16T09:01:09;4.00;;;3.45;;
15408;SDS011;7803;48.130;13.788;2023-05-16T09:04:13;6.00;;;3.88;;
15408;SDS011;7803;48.130;13.788;2023-05-16T09:07:16;5.57;;;3.55;;
15408;SDS011;7803;48.130;13.788;2023-05-16T09:10:18;5.55;;;3.58;;
15408;SDS011;7803;48.130;13.788;2023-05-16T09:13:20;4.85;;;3.35;;
15408;SDS011;7803;48.130;13.788;2023-05-16T09:16:22;5.25;;;3.70;;
15408;SDS011;7803;48.130;13.788;2023-05-16T09:19:25;5.03;;;3.85;;
15408;SDS011;7803;48.130;13.788;2023-05-16T09:22:32;5.93;;;3.30;;
15408;SDS011;7803;48.130;13.788;2023-05-16T09:25:34;4.68;;;3.33;;
15408;SDS011;7803;48.130;13.788;2023-05-16T09:28:36;5.70;;;3.53;;
15408;SDS011;7803;48.130;13.788;2023-05-16T09:31:39;3.83;;;3.28;;
15408;SDS011;7803;48.130;13.788;2023-05-16T09:34:43;4.47;;;3.53;;
15408;SDS011;7803;48.130;13.788;2023-05-16T09:37:48;5.50;;;3.42;;
15408;SDS011;7803;48.130;13.788;2023-05-16T09:40:52;5.10;;;3.22;;
15408;SDS011;7803;48.130;13.788;2023-05-16T09:43:54;4.07;;;3.22;;
15408;SDS011;7803;48.130;13.788;2023-05-16T09:46:56;5.13;;;3.35;;
15408;SDS011;7803;48.130;13.788;2023-05-16T09:49:59;5.07;;;3.13;;
15408;SDS011;7803;48.130;13.788;2023-05-16T09:53:02;5.20;;;3.70;;
15408;SDS011;7803;48.130;13.788;2023-05-16T09:56:04;5.53;;;3.92;;
15408;SDS011;7803;48.130;13.788;2023-05-16T09:59:09;7.88;;;3.60;;
15408;SDS011;7803;48.130;13.788;2023-05-16T10:02:11;7.40;;;3.95;;
15408;SDS011;7803;48.130;13.788;2023-05-16T10:05:15;6.22;;;3.65;;
15408;SDS011;7803;48.130;13.788;2023-05-16T10:08:18;6.63;;;3.38;;
15408;SDS011;7803;48.130;13.788;2023-05-16T10:11:21;8.20;;;3.40;;
15408;SDS011;7803;48.130;13.788;2023-05-16T10:14:23;5.13;;;3.20;;
15408;SDS011;7803;48.130;13.788;2023-05-16T10:17:27;4.90;;;3.20;;
15408;SDS011;7803;48.130;13.788;2023-05-16T10:20:34;5.72;;;3.35;;
15408;SDS011;7803;48.130;13.788;2023-05-16T10:23:36;4.60;;;3.33;;
15408;SDS011;7803;48.130;13.788;2023-05-16T10:26:41;4.88;;;3.10;;
15408;SDS011;7803;48.130;13.788;2023-05-16T10:29:43;5.88;;;3.50;;
15408;SDS011;7803;48.130;13.788;2023-05-16T10:32:45;7.05;;;3.70;;
15408;SDS011;7803;48.130;13.788;2023-05-16T10:35:51;4.10;;;3.10;;
15408;SDS011;7803;48.130;13.788;2023-05-16T10:38:54;5.03;;;3.60;;
15408;SDS011;7803;48.130;13.788;2023-05-16T10:41:56;5.32;;;3.38;;
15408;SDS011;7803;48.130;13.788;2023-05-16T10:45:08;5.43;;;3.20;;
15408;SDS011;7803;48.130;13.788;2023-05-16T10:48:15;6.90;;;3.53;;
15408;SDS011;7803;48.130;13.788;2023-05-16T10:51:36;4.60;;;3.30;;
15408;SDS011;7803;48.130;13.788;2023-05-16T10:54:39;4.00;;;3.50;;
15408;SDS011;7803;48.130;13.788;2023-05-16T10:57:43;6.63;;;3.65;;
15408;SDS011;7803;48.130;13.788;2023-05-16T11:00:46;4.63;;;3.83;;
15408;SDS011;7803;48.130;13.788;2023-05-16T11:04:02;4.20;;;3.80;;
15408;SDS011;7803;48.130;13.788;2023-05-16T11:07:07;3.72;;;3.10;;
15408;SDS011;7803;48.130;13.788;2023-05-16T11:10:14;5.00;;;3.10;;
15408;SDS011;7803;48.130;13.788;2023-05-16T11:13:16;3.90;;;3.05;;
15408;SDS011;7803;48.130;13.788;2023-05-16T11:16:28;4.78;;;3.40;;
15408;SDS011;7803;48.130;13.788;2023-05-16T11:19:31;3.30;;;3.00;;
15408;SDS011;7803;48.130;13.788;2023-05-16T11:22:38;3.03;;;2.72;;
15408;SDS011;7803;48.130;13.788;2023-05-16T11:25:40;3.50;;;3.00;;
15408;SDS011;7803;48.130;13.788;2023-05-16T11:28:44;3.50;;;3.00;;
15408;SDS011;7803;48.130;13.788;2023-05-16T11:31:49;3.33;;;2.78;;
15408;SDS011;7803;48.130;13.788;2023-05-16T11:34:53;3.58;;;2.80;;
15408;SDS011;7803;48.130;13.788;2023-05-16T11:37:56;2.90;;;2.55;;
15408;SDS011;7803;48.130;13.788;2023-05-16T11:41:02;4.22;;;3.10;;
15408;SDS011;7803;48.130;13.788;2023-05-16T11:44:05;3.20;;;2.85;;
15408;SDS011;7803;48.130;13.788;2023-05-16T11:47:07;3.13;;;2.83;;
15408;SDS011;7803;48.130;13.788;2023-05-16T11:50:10;2.97;;;2.67;;
15408;SDS011;7803;48.130;13.788;2023-05-16T11:53:15;3.00;;;2.70;;
15408;SDS011;7803;48.130;13.788;2023-05-16T11:56:17;3.28;;;2.60;;
15408;SDS011;7803;48.130;13.788;2023-05-16T11:59:20;3.08;;;2.67;;
15408;SDS011;7803;48.130;13.788;2023-05-16T12:02:22;3.17;;;2.70;;
15408;SDS011;7803;48.130;13.788;2023-05-16T12:05:24;3.42;;;2.70;;
15408;SDS011;7803;48.130;13.788;2023-05-16T12:08:29;2.80;;;2.50;;
15408;SDS011;7803;48.130;13.788;2023-05-16T12:11:31;2.88;;;2.60;;
15408;SDS011;7803;48.130;13.788;2023-05-16T12:14:33;2.90;;;2.60;;
15408;SDS011;7803;48.130;13.788;2023-05-16T12:17:36;4.15;;;2.83;;
15408;SDS011;7803;48.130;13.788;2023-05-16T12:20:39;3.22;;;2.65;;
15408;SDS011;7803;48.130;13.788;2023-05-16T12:23:43;3.22;;;2.40;;
15408;SDS011;7803;48.130;13.788;2023-05-16T12:26:45;2.78;;;2.40;;
15408;SDS011;7803;48.130;13.788;2023-05-16T12:29:47;3.47;;;2.65;;
15408;SDS011;7803;48.130;13.788;2023-05-16T12:32:56;3.35;;;2.60;;
15408;SDS011;7803;48.130;13.788;2023-05-16T12:35:58;2.70;;;2.50;;
15408;SDS011;7803;48.130;13.788;2023-05-16T12:39:04;3.50;;;2.70;;
15408;SDS011;7803;48.130;13.788;2023-05-16T12:42:08;3.30;;;2.70;;
15408;SDS011;7803;48.130;13.788;2023-05-16T12:45:15;2.80;;;2.60;;
15408;SDS011;7803;48.130;13.788;2023-05-16T12:48:18;2.58;;;2.35;;
15408;SDS011;7803;48.130;13.788;2023-05-16T12:51:20;3.15;;;2.55;;
15408;SDS011;7803;48.130;13.788;2023-05-16T12:54:23;4.15;;;2.70;;
15408;SDS011;7803;48.130;13.788;2023-05-16T12:57:25;5.43;;;2.80;;
15408;SDS011;7803;48.130;13.788;2023-05-16T13:00:27;3.55;;;2.90;;
15408;SDS011;7803;48.130;13.788;2023-05-16T13:03:30;3.63;;;2.47;;
15408;SDS011;7803;48.130;13.788;2023-05-16T13:06:33;4.07;;;2.80;;
15408;SDS011;7803;48.130;13.788;2023-05-16T13:09:38;2.90;;;2.67;;
15408;SDS011;7803;48.130;13.788;2023-05-16T13:12:40;2.67;;;2.45;;
15408;SDS011;7803;48.130;13.788;2023-05-16T13:15:42;2.53;;;2.33;;
15408;SDS011;7803;48.130;13.788;2023-05-16T13:18:44;3.70;;;2.53;;
15408;SDS011;7803;48.130;13.788;2023-05-16T13:21:47;2.70;;;2.50;;
15408;SDS011;7803;48.130;13.788;2023-05-16T13:24:50;2.72;;;2.47;;
15408;SDS011;7803;48.130;13.788;2023-05-16T13:27:52;4.00;;;2.80;;
15408;SDS011;7803;48.130;13.788;2023-05-16T13:30:54;3.40;;;2.63;;
15408;SDS011;7803;48.130;13.788;2023-05-16T13:33:56;3.65;;;2.90;;
15408;SDS011;7803;48.130;13.788;2023-05-16T13:36:58;3.85;;;2.38;;
15408;SDS011;7803;48.130;13.788;2023-05-16T13:40:02;2.90;;;2.50;;
15408;SDS011;7803;48.130;13.788;2023-05-16T13:43:04;3.25;;;2.88;;
15408;SDS011;7803;48.130;13.788;2023-05-16T13:46:06;2.60;;;2.40;;
15408;SDS011;7803;48.130;13.788;2023-05-16T13:49:08;2.50;;;2.30;;
15408;SDS011;7803;48.130;13.788;2023-05-16T13:52:10;2.80;;;2.50;;
15408;SDS011;7803;48.130;13.788;2023-05-16T13:55:14;2.85;;;2.42;;
15408;SDS011;7803;48.130;13.788;2023-05-16T13:58:16;2.65;;;2.42;;
15408;SDS011;7803;48.130;13.788;2023-05-16T14:01:18;2.60;;;2.40;;
15408;SDS011;7803;48.130;13.788;2023-05-16T14:04:20;2.60;;;2.40;;
15408;SDS011;7803;48.130;13.788;2023-05-16T14:07:22;3.95;;;2.50;;
15408;SDS011;7803;48.130;13.788;2023-05-16T14:10:26;2.78;;;2.58;;
15408;SDS011;7803;48.130;13.788;2023-05-16T14:13:28;3.17;;;2.50;;
15408;SDS011;7803;48.130;13.788;2023-05-16T14:16:30;2.60;;;2.40;;
15408;SDS011;7803;48.130;13.788;2023-05-16T14:19:32;2.65;;;2.45;;
15408;SDS011;7803;48.130;13.788;2023-05-16T14:22:36;2.58;;;2.28;;
15408;SDS011;7803;48.130;13.788;2023-05-16T14:25:40;2.80;;;2.50;;
15408;SDS011;7803;48.130;13.788;2023-05-16T14:28:42;2.53;;;2.30;;
15408;SDS011;7803;48.130;13.788;2023-05-16T14:31:44;2.88;;;2.40;;
15408;SDS011;7803;48.130;13.788;2023-05-16T14:34:46;2.95;;;2.63;;
15408;SDS011;7803;48.130;13.788;2023-05-16T14:37:48;2.80;;;2.58;;
15408;SDS011;7803;48.130;13.788;2023-05-16T14:40:51;3.45;;;2.30;;
15408;SDS011;7803;48.130;13.788;2023-05-16T14:43:53;2.60;;;2.40;;
15408;SDS011;7803;48.130;13.788;2023-05-16T14:46:56;2.75;;;2.40;;
15408;SDS011;7803;48.130;13.788;2023-05-16T14:49:58;3.25;;;2.35;;
15408;SDS011;7803;48.130;13.788;2023-05-16T14:53:01;3.05;;;2.40;;
15408;SDS011;7803;48.130;13.788;2023-05-16T14:56:05;2.70;;;2.47;;
15408;SDS011;7803;48.130;13.788;2023-05-16T14:59:07;2.55;;;2.20;;
15408;SDS011;7803;48.130;13.788;2023-05-16T15:02:09;3.00;;;2.10;;
15408;SDS011;7803;48.130;13.788;2023-05-16T15:05:11;2.63;;;2.40;;
15408;SDS011;7803;48.130;13.788;2023-05-16T15:08:13;2.67;;;2.45;;
15408;SDS011;7803;48.130;13.788;2023-05-16T15:11:16;2.70;;;2.50;;
15408;SDS011;7803;48.130;13.788;2023-05-16T15:14:18;2.55;;;2.35;;
15408;SDS011;7803;48.130;13.788;2023-05-16T15:17:20;3.05;;;2.58;;
15408;SDS011;7803;48.130;13.788;2023-05-16T15:20:22;3.38;;;2.38;;
15408;SDS011;7803;48.130;13.788;2023-05-16T15:23:24;2.60;;;2.40;;
15408;SDS011;7803;48.130;13.788;2023-05-16T15:26:28;2.70;;;2.50;;
15408;SDS011;7803;48.130;13.788;2023-05-16T15:29:31;2.42;;;2.22;;
15408;SDS011;7803;48.130;13.788;2023-05-16T15:32:33;2.92;;;2.42;;
15408;SDS011;7803;48.130;13.788;2023-05-16T15:35:35;2.58;;;2.38;;
15408;SDS011;7803;48.130;13.788;2023-05-16T15:38:37;2.65;;;2.45;;
15408;SDS011;7803;48.130;13.788;2023-05-16T15:41:44;2.92;;;2.63;;
15408;SDS011;7803;48.130;13.788;2023-05-16T15:44:46;2.53;;;2.30;;
15408;SDS011;7803;48.130;13.788;2023-05-16T15:47:48;2.47;;;2.28;;
15408;SDS011;7803;48.130;13.788;2023-05-16T15:50:50;2.38;;;2.17;;
15408;SDS011;7803;48.130;13.788;2023-05-16T15:53:53;3.50;;;2.60;;
15408;SDS011;7803;48.130;13.788;2023-05-16T15:56:56;3.17;;;2.88;;
15408;SDS011;7803;48.130;13.788;2023-05-16T15:59:58;5.00;;;2.75;;
15408;SDS011;7803;48.130;13.788;2023-05-16T16:03:00;2.60;;;2.40;;
15408;SDS011;7803;48.130;13.788;2023-05-16T16:06:02;3.38;;;2.65;;
15408;SDS011;7803;48.130;13.788;2023-05-16T16:09:05;3.28;;;2.65;;
15408;SDS011;7803;48.130;13.788;2023-05-16T16:12:08;3.35;;;2.63;;
15408;SDS011;7803;48.130;13.788;2023-05-16T16:15:10;3.53;;;2.60;;
15408;SDS011;7803;48.130;13.788;2023-05-16T16:18:13;4.15;;;2.72;;
15408;SDS011;7803;48.130;13.788;2023-05-16T16:21:15;4.03;;;2.70;;
15408;SDS011;7803;48.130;13.788;2023-05-16T16:24:17;2.80;;;2.60;;
15408;SDS011;7803;48.130;13.788;2023-05-16T16:27:21;3.17;;;2.75;;
15408;SDS011;7803;48.130;13.788;2023-05-16T16:30:23;3.08;;;2.70;;
15408;SDS011;7803;48.130;13.788;2023-05-16T16:33:26;2.70;;;2.50;;
15408;SDS011;7803;48.130;13.788;2023-05-16T16:36:28;2.90;;;2.58;;
15408;SDS011;7803;48.130;13.788;2023-05-16T16:39:30;3.03;;;2.72;;
15408;SDS011;7803;48.130;13.788;2023-05-16T16:42:34;2.60;;;2.40;;
15408;SDS011;7803;48.130;13.788;2023-05-16T16:45:37;3.15;;;2.70;;
15408;SDS011;7803;48.130;13.788;2023-05-16T16:48:39;3.08;;;2.78;;
15408;SDS011;7803;48.130;13.788;2023-05-16T16:51:41;2.67;;;2.47;;
15408;SDS011;7803;48.130;13.788;2023-05-16T16:54:44;2.63;;;2.42;;
15408;SDS011;7803;48.130;13.788;2023-05-16T16:57:48;4.00;;;2.80;;
15408;SDS011;7803;48.130;13.788;2023-05-16T17:00:50;3.03;;;2.67;;
15408;SDS011;7803;48.130;13.788;2023-05-16T17:03:52;2.92;;;2.63;;
15408;SDS011;7803;48.130;13.788;2023-05-16T17:06:54;3.20;;;2.90;;
15408;SDS011;7803;48.130;13.788;2023-05-16T17:09:56;3.95;;;3.17;;
15408;SDS011;7803;48.130;13.788;2023-05-16T17:13:01;3.83;;;3.03;;
15408;SDS011;7803;48.130;13.788;2023-05-16T17:16:06;4.13;;;3.13;;
15408;SDS011;7803;48.130;13.788;2023-05-16T17:19:10;3.00;;;2.70;;
15408;SDS011;7803;48.130;13.788;2023-05-16T17:22:12;3.90;;;3.15;;
15408;SDS011;7803;48.130;13.788;2023-05-16T17:25:14;5.35;;;3.22;;
15408;SDS011;7803;48.130;13.788;2023-05-16T17:28:17;3.35;;;3.05;;
15408;SDS011;7803;48.130;13.788;2023-05-16T17:31:19;4.07;;;2.90;;
15408;SDS011;7803;48.130;13.788;2023-05-16T17:34:21;2.85;;;2.55;;
15408;SDS011;7803;48.130;13.788;2023-05-16T17:37:23;3.00;;;2.70;;
15408;SDS011;7803;48.130;13.788;2023-05-16T17:40:25;2.80;;;2.50;;
15408;SDS011;7803;48.130;13.788;2023-05-16T17:43:29;3.00;;;2.70;;
15408;SDS011;7803;48.130;13.788;2023-05-16T17:46:31;3.30;;;3.00;;
15408;SDS011;7803;48.130;13.788;2023-05-16T17:49:33;2.88;;;2.65;;
15408;SDS011;7803;48.130;13.788;2023-05-16T17:52:35;6.40;;;3.50;;
15408;SDS011;7803;48.130;13.788;2023-05-16T17:55:38;3.88;;;3.17;;
15408;SDS011;7803;48.130;13.788;2023-05-16T17:58:42;3.75;;;2.85;;
15408;SDS011;7803;48.130;13.788;2023-05-16T18:01:44;3.17;;;2.88;;
15408;SDS011;7803;48.130;13.788;2023-05-16T18:04:47;3.30;;;2.67;;
15408;SDS011;7803;48.130;13.788;2023-05-16T18:07:49;3.40;;;2.97;;
15408;SDS011;7803;48.130;13.788;2023-05-16T18:10:52;5.32;;;2.85;;
15408;SDS011;7803;48.130;13.788;2023-05-16T18:13:56;5.18;;;3.40;;
15408;SDS011;7803;48.130;13.788;2023-05-16T18:16:57;4.38;;;3.00;;
15408;SDS011;7803;48.130;13.788;2023-05-16T18:19:59;6.97;;;3.25;;
15408;SDS011;7803;48.130;13.788;2023-05-16T18:23:08;5.47;;;3.20;;